Flight Track Log - Related Links

Times and Time Zones

All times are in EDT time to prevent confusion due to time zone crossing. See the CPT8773 flight status page for this flight to view local times or setup timezone preferences in your user account.


Time Position Orientation Groundspeed Altitude Reporting Facility
EDT Latitude Longitude Course Direction KTS MPH feet Rate Location/Type
Thu 09:31:54 AM 42.9828 -106.4775 308° West 136 157 6,800  Level Denver Center
Thu 09:32:55 AM 43.0189 -106.4950 340° North 124 143 7,500 492 Climbing Denver Center
Thu 09:33:56 AM 43.0503 -106.5019 351° North 120 138 7,800 358 Climbing Denver Center
Thu 09:35:00 AM 43.0976 -106.2917 308° West  Level FlightAware Approximate
Thu 09:35:09 AM 43.0808 -106.5058 355° North 117 135 8,300  Level Denver Center
Thu 09:36:00 AM 43.1234 -106.3367 308° West  Level FlightAware Approximate
Thu 09:36:11 AM 43.1219 -106.5139 352° North 117 135 8,700  Level Denver Center
Thu 09:37:00 AM 43.1491 -106.3817 308° West  Level FlightAware Approximate
Thu 09:37:12 AM 43.1542 -106.5181 355° North 118 136 9,100  Level Denver Center
Thu 09:38:13 AM 43.1911 -106.5233 354° North 120 138 9,500 295 Climbing Denver Center
Thu 09:39:14 AM 43.2219 -106.5342 346° North 120 138 9,700 293 Climbing Denver Center
Thu 09:40:16 AM 43.2486 -106.5675 318° Northwest 119 137 10,100 293 Climbing Denver Center
Thu 09:41:17 AM 43.2622 -106.6008 299° West 107 123 10,300 246 Climbing Denver Center
Thu 09:42:18 AM 43.2794 -106.6328 307° West 109 125 10,600 246 Climbing Denver Center
Thu 09:43:19 AM 43.2986 -106.6725 304° West 111 128 10,800 295 Climbing Denver Center
Thu 09:44:20 AM 43.3194 -106.7047 312° West 119 137 11,200 244 Climbing Denver Center
Thu 09:45:22 AM 43.3378 -106.7406 305° West 119 137 11,300 244 Climbing Denver Center
Thu 09:46:23 AM 43.3594 -106.7850 304° West 124 143 11,700 295 Climbing Denver Center
Thu 09:47:24 AM 43.3806 -106.8206 309° West 126 145 11,900 148 Climbing Denver Center
Thu 09:48:25 AM 43.4072 -106.8656 309° West 135 155 12,000 98 Climbing Denver Center
Thu 09:49:27 AM 43.4325 -106.9133 306° West 149 171 12,100  Climbing Denver Center
Thu 09:50:28 AM 43.4583 -106.9583 308° West 155 178 12,000 -49 Descending Denver Center
Thu 09:51:29 AM 43.4786 -107.0083 299° West 156 180 12,000 49 Level Denver Center
Thu 09:52:31 AM 43.5036 -107.0603 304° West 146 168 12,100  Climbing Denver Center
Thu 09:53:32 AM 43.5250 -107.1058 303° West 148 170 12,000  Descending Denver Center
Thu 09:54:33 AM 43.5531 -107.1542 309° West 145 167 12,100  Climbing Denver Center
Thu 09:54:52 AM 43.5586 -107.1711 294° West 144 166 12,000 -74 Descending Salt Lake Center
Thu 09:55:54 AM 43.5803 -107.2136 305° West 143 165 12,000 -48 Level Salt Lake Center
Thu 09:56:56 AM 43.6036 -107.2553 308° West 143 165 11,900 -49 Descending Salt Lake Center
Thu 09:57:57 AM 43.6303 -107.3028 308° West 141 162 11,900 49 Level Salt Lake Center
Thu 09:58:59 AM 43.6514 -107.3450 305° West 140 161 12,000  Climbing Salt Lake Center
Thu 10:00:01 AM 43.6783 -107.3933 308° West 141 162 11,900  Descending Salt Lake Center
Thu 10:01:02 AM 43.6994 -107.4361 304° West 141 162 12,000  Climbing Salt Lake Center
Thu 10:02:04 AM 43.7258 -107.4844 307° West 141 162 11,900 -49 Descending Salt Lake Center
Thu 10:03:05 AM 43.7497 -107.5264 308° West 143 165 11,900 49 Level Salt Lake Center
Thu 10:04:07 AM 43.7717 -107.5692 305° West 142 163 12,000  Climbing Salt Lake Center
Thu 10:05:09 AM 43.7956 -107.6219 302° West 143 165 11,900  Descending Salt Lake Center
Thu 10:06:51 AM 43.8325 -107.6917 306° West 148 170 12,000 59 Climbing Denver Center
Thu 10:08:00 AM 43.8618 -107.7417 309° West  Level FlightAware Approximate

Login

Don't have an account? Register now (free) for customized features, flight alerts, and more!